createdAt,value
2023-02-16T00:01:33.102Z,84.03
2023-02-16T00:03:59.580Z,83.81
2023-02-16T00:06:27.081Z,84.35
2023-02-16T00:08:55.485Z,84.80
2023-02-16T00:11:50.837Z,84.70
2023-02-16T00:14:17.904Z,84.39
2023-02-16T00:16:44.755Z,84.89
2023-02-16T00:19:25.579Z,85.46
2023-02-16T00:21:54.416Z,85.25
2023-02-16T00:24:21.623Z,85.56
2023-02-16T00:26:48.632Z,85.82
2023-02-16T00:29:31.413Z,85.87
2023-02-16T00:31:59.558Z,86.04
2023-02-16T00:34:34.255Z,85.49
2023-02-16T00:37:07.778Z,85.73
2023-02-16T00:39:34.727Z,85.25
2023-02-16T00:42:04.398Z,85.99
2023-02-16T00:44:34.997Z,85.76
2023-02-16T00:47:04.454Z,86.03
2023-02-16T00:49:30.920Z,85.96
2023-02-16T00:51:57.582Z,86.65
2023-02-16T00:54:24.040Z,86.55
2023-02-16T00:56:50.527Z,86.26
2023-02-16T00:59:21.004Z,86.58
2023-02-16T01:01:47.806Z,86.94
2023-02-16T01:04:20.380Z,86.22
2023-02-16T01:07:05.886Z,85.94
2023-02-16T01:09:51.839Z,85.50
2023-02-16T01:12:19.657Z,85.80
2023-02-16T01:14:51.276Z,85.89
2023-02-16T01:17:17.908Z,85.60
2023-02-16T01:19:44.330Z,85.89
2023-02-16T01:22:10.890Z,85.45
2023-02-16T01:24:37.364Z,85.67
2023-02-16T01:27:03.839Z,85.95
2023-02-16T01:29:30.259Z,86.70
2023-02-16T01:31:57.033Z,86.28
2023-02-16T01:34:25.380Z,87.16
2023-02-16T01:36:52.218Z,86.61
2023-02-16T01:39:19.916Z,87.04
2023-02-16T01:41:59.305Z,87.02
2023-02-16T01:44:29.819Z,87.10
2023-02-16T01:47:06.600Z,87.48
2023-02-16T01:49:33.143Z,87.32
2023-02-16T01:52:19.391Z,87.26
2023-02-16T01:54:52.791Z,87.19
2023-02-16T01:57:49.950Z,86.82
2023-02-16T02:00:24.462Z,86.92
2023-02-16T02:02:54.849Z,86.73
2023-02-16T02:05:36.669Z,86.66
2023-02-16T02:08:24.975Z,87.14
2023-02-16T02:10:57.560Z,87.29
2023-02-16T02:13:41.368Z,87.24
2023-02-16T02:16:08.247Z,86.86
2023-02-16T02:18:34.814Z,86.89
2023-02-16T02:21:45.468Z,86.97
2023-02-16T02:24:36.265Z,87.00
2023-02-16T02:27:25.021Z,86.89
2023-02-16T02:30:13.547Z,88.24
2023-02-16T02:33:03.829Z,87.87
2023-02-16T02:35:50.254Z,87.44
2023-02-16T02:38:34.038Z,88.20
2023-02-16T02:41:12.320Z,87.33
2023-02-16T02:43:46.366Z,87.74
2023-02-16T02:46:16.872Z,87.66
2023-02-16T02:48:43.331Z,87.42
2023-02-16T02:51:28.860Z,87.33
2023-02-16T02:54:38.801Z,87.63
2023-02-16T02:57:32.129Z,88.58
2023-02-16T03:00:27.810Z,87.78
2023-02-16T03:03:02.445Z,87.30
2023-02-16T03:05:31.247Z,87.86
2023-02-16T03:08:14.255Z,88.14
2023-02-16T03:11:07.306Z,88.27
2023-02-16T03:13:37.146Z,88.28
2023-02-16T03:16:14.875Z,88.09
2023-02-16T03:19:01.605Z,88.39
2023-02-16T03:21:47.358Z,87.79
2023-02-16T03:24:36.071Z,87.99
2023-02-16T03:27:21.374Z,88.04
2023-02-16T03:29:48.755Z,88.77
2023-02-16T03:32:15.542Z,88.24
2023-02-16T03:34:42.501Z,88.82
2023-02-16T03:37:09.240Z,88.66
2023-02-16T03:39:55.633Z,89.12
2023-02-16T03:42:22.921Z,89.14
2023-02-16T03:44:49.328Z,89.30
2023-02-16T03:47:16.004Z,88.97
2023-02-16T03:49:42.431Z,89.75
2023-02-16T03:52:09.112Z,89.72
2023-02-16T03:54:35.496Z,89.96
2023-02-16T03:57:01.930Z,90.11
2023-02-16T03:59:28.363Z,90.88
2023-02-16T04:01:55.172Z,90.43
2023-02-16T04:04:21.686Z,90.66
2023-02-16T04:06:48.186Z,89.59
2023-02-16T04:09:14.770Z,90.21
2023-02-16T04:12:00.093Z,90.36
2023-02-16T04:14:26.687Z,90.75
2023-02-16T04:16:53.157Z,89.83
2023-02-16T04:19:19.809Z,90.14
2023-02-16T04:21:46.217Z,90.76
2023-02-16T04:24:12.592Z,89.97
2023-02-16T04:26:39.013Z,89.93
2023-02-16T04:29:05.391Z,91.07
2023-02-16T04:31:31.903Z,90.81
2023-02-16T04:33:58.569Z,91.04
2023-02-16T04:36:24.988Z,91.28
2023-02-16T04:38:51.349Z,90.83
2023-02-16T04:41:17.662Z,90.90
2023-02-16T04:43:44.085Z,91.02
2023-02-16T04:46:10.534Z,90.67
2023-02-16T04:48:37.000Z,91.18
2023-02-16T04:51:04.922Z,91.18
2023-02-16T04:53:31.538Z,91.79
2023-02-16T04:55:58.446Z,92.29
2023-02-16T04:58:24.898Z,92.32
2023-02-16T05:00:51.308Z,91.78
2023-02-16T05:03:17.718Z,92.92
2023-02-16T05:05:44.113Z,92.94
2023-02-16T05:08:12.938Z,92.46
2023-02-16T05:10:39.380Z,92.94
2023-02-16T05:13:24.438Z,92.61
2023-02-16T05:15:50.841Z,92.81
2023-02-16T05:18:17.308Z,93.13
2023-02-16T05:21:02.814Z,92.69
2023-02-16T05:23:29.535Z,92.64
2023-02-16T05:25:55.942Z,92.34
2023-02-16T05:28:22.380Z,93.07
2023-02-16T05:30:48.900Z,92.04
2023-02-16T05:33:15.263Z,92.39
2023-02-16T05:35:41.677Z,92.52
2023-02-16T05:38:08.030Z,92.96
2023-02-16T05:40:34.480Z,92.65
2023-02-16T05:43:00.868Z,92.61
2023-02-16T05:45:27.881Z,91.93
2023-02-16T05:47:54.586Z,92.17
2023-02-16T05:50:21.309Z,92.20
2023-02-16T05:52:47.765Z,92.44
2023-02-16T05:55:14.235Z,92.10
2023-02-16T05:57:40.653Z,91.50
2023-02-16T06:00:08.915Z,92.12
2023-02-16T06:02:35.373Z,91.59
2023-02-16T06:05:01.830Z,91.16
2023-02-16T06:07:28.234Z,91.59
2023-02-16T06:09:54.659Z,91.34
2023-02-16T06:12:21.246Z,91.05
2023-02-16T06:14:47.644Z,91.26
2023-02-16T06:17:14.185Z,91.45
2023-02-16T06:19:40.640Z,91.05
2023-02-16T06:22:07.086Z,91.46
2023-02-16T06:24:36.362Z,91.57
2023-02-16T06:27:02.771Z,91.33
2023-02-16T06:29:29.787Z,91.71
2023-02-16T06:31:56.466Z,90.98
2023-02-16T06:34:22.943Z,91.15
2023-02-16T06:36:49.411Z,91.00
2023-02-16T06:39:15.787Z,90.58
2023-02-16T06:41:42.170Z,91.02
2023-02-16T06:44:13.901Z,91.13
2023-02-16T06:46:46.255Z,89.75
2023-02-16T06:49:16.745Z,89.46
2023-02-16T06:51:43.427Z,88.49
2023-02-16T06:54:10.114Z,88.45
2023-02-16T06:56:37.964Z,87.50
2023-02-16T06:59:05.281Z,86.22
2023-02-16T07:01:32.411Z,85.33
2023-02-16T07:03:59.089Z,83.90
2023-02-16T07:06:27.920Z,83.34
2023-02-16T07:08:54.436Z,83.40
2023-02-16T07:11:21.664Z,84.17
2023-02-16T07:13:48.085Z,83.65
2023-02-16T07:16:15.733Z,83.57
2023-02-16T07:18:42.441Z,82.61
2023-02-16T07:21:08.829Z,81.59
2023-02-16T07:23:35.342Z,81.20
2023-02-16T07:26:01.855Z,81.16
2023-02-16T07:28:28.277Z,81.60
2023-02-16T07:30:55.374Z,82.26
2023-02-16T07:33:21.806Z,81.49
2023-02-16T07:35:48.255Z,82.28
2023-02-16T07:38:15.455Z,81.47
2023-02-16T07:40:42.146Z,78.85
2023-02-16T07:43:08.667Z,78.33
2023-02-16T07:45:36.014Z,76.69
2023-02-16T07:48:02.644Z,69.92
2023-02-16T07:50:29.073Z,70.26
2023-02-16T07:52:55.494Z,66.15
2023-02-16T07:55:21.891Z,67.54
2023-02-16T07:57:49.464Z,67.31
2023-02-16T08:00:16.627Z,67.62
2023-02-16T08:02:43.154Z,67.68
2023-02-16T08:05:09.717Z,66.06
2023-02-16T08:07:36.405Z,64.38
2023-02-16T08:10:02.896Z,66.24
2023-02-16T08:12:29.406Z,64.85
2023-02-16T08:14:56.111Z,61.65
2023-02-16T08:17:22.553Z,58.98
2023-02-16T08:19:50.418Z,55.24
2023-02-16T08:22:17.865Z,52.72
2023-02-16T08:24:44.282Z,53.68
2023-02-16T08:27:11.175Z,52.49
2023-02-16T08:29:37.802Z,55.89
2023-02-16T08:32:09.195Z,55.25
2023-02-16T08:34:36.913Z,55.38
2023-02-16T08:37:04.643Z,55.59
2023-02-16T08:39:32.869Z,55.90
2023-02-16T08:42:01.089Z,57.44
2023-02-16T08:44:29.170Z,55.90
2023-02-16T08:46:58.722Z,52.97
2023-02-16T08:49:26.051Z,51.98
2023-02-16T08:51:55.397Z,50.63
2023-02-16T08:54:26.877Z,50.64
2023-02-16T08:56:54.379Z,49.54
2023-02-16T08:59:21.935Z,49.92
2023-02-16T09:01:48.776Z,53.17
2023-02-16T09:04:17.627Z,53.89
2023-02-16T09:06:45.480Z,54.23
2023-02-16T09:09:13.286Z,52.69
2023-02-16T09:11:40.298Z,51.69
2023-02-16T09:14:07.327Z,50.71
2023-02-16T09:16:35.388Z,50.58
2023-02-16T09:19:02.406Z,50.85
2023-02-16T09:21:33.281Z,49.67
2023-02-16T09:24:04.108Z,44.44
2023-02-16T09:26:32.783Z,43.74
2023-02-16T09:29:00.574Z,43.20
2023-02-16T09:31:31.008Z,44.21
2023-02-16T09:34:01.884Z,47.33
2023-02-16T09:36:28.649Z,47.92
2023-02-16T09:38:56.280Z,47.74
2023-02-16T09:41:41.061Z,51.59
2023-02-16T09:44:28.590Z,50.63
2023-02-16T09:46:57.410Z,50.50
2023-02-16T09:49:29.292Z,49.58
2023-02-16T09:52:13.769Z,50.62
2023-02-16T09:54:53.076Z,49.82
2023-02-16T09:57:23.786Z,48.27
2023-02-16T10:00:09.895Z,48.94
2023-02-16T10:03:12.172Z,45.58
2023-02-16T10:06:01.376Z,43.02
2023-02-16T10:08:57.355Z,39.76
2023-02-16T10:11:46.626Z,40.21
2023-02-16T10:14:36.929Z,38.66
2023-02-16T10:17:03.484Z,39.45
2023-02-16T10:19:38.630Z,40.20
2023-02-16T10:22:08.343Z,41.92
2023-02-16T10:24:46.437Z,40.00
2023-02-16T10:27:16.327Z,37.80
2023-02-16T10:29:43.018Z,40.79
2023-02-16T10:32:25.010Z,41.22
2023-02-16T10:35:10.847Z,42.30
2023-02-16T10:38:03.456Z,41.62
2023-02-16T10:40:34.827Z,43.83
2023-02-16T10:43:11.686Z,41.01
2023-02-16T10:45:52.957Z,40.24
2023-02-16T10:48:21.690Z,39.36
2023-02-16T10:50:58.634Z,40.10
2023-02-16T10:53:37.314Z,39.90
2023-02-16T10:56:23.771Z,37.54
2023-02-16T10:58:51.640Z,37.10
2023-02-16T11:01:20.611Z,35.31
2023-02-16T11:03:53.129Z,34.94
2023-02-16T11:06:23.043Z,33.83
2023-02-16T11:08:59.292Z,33.73
2023-02-16T11:11:27.833Z,33.78
2023-02-16T11:14:00.182Z,35.75
2023-02-16T11:16:26.992Z,36.04
2023-02-16T11:19:02.003Z,36.22
2023-02-16T11:21:52.005Z,36.31
2023-02-16T11:24:32.011Z,33.94
2023-02-16T11:27:18.434Z,33.98
2023-02-16T11:29:44.963Z,36.16
2023-02-16T11:32:13.000Z,34.55
2023-02-16T11:34:45.160Z,32.37
2023-02-16T11:37:28.352Z,33.06
2023-02-16T11:40:00.620Z,36.26
2023-02-16T11:42:35.658Z,35.28
2023-02-16T11:45:04.569Z,34.43
2023-02-16T11:47:37.495Z,35.98
2023-02-16T11:50:29.219Z,35.44
2023-02-16T11:52:58.748Z,33.99
2023-02-16T11:55:33.710Z,34.92
2023-02-16T11:58:16.574Z,34.20
2023-02-16T12:00:52.806Z,33.70
2023-02-16T12:03:31.353Z,31.81
2023-02-16T12:06:31.498Z,33.14
2023-02-16T12:09:06.992Z,34.07
2023-02-16T12:11:58.048Z,33.38
2023-02-16T12:14:41.428Z,34.29
2023-02-16T12:17:18.537Z,34.36
2023-02-16T12:19:47.730Z,33.26
2023-02-16T12:22:14.380Z,33.25
2023-02-16T12:25:11.332Z,35.15
2023-02-16T12:27:44.012Z,35.99
2023-02-16T12:30:34.004Z,35.94
2023-02-16T12:33:10.500Z,36.48
2023-02-16T12:35:53.486Z,37.90
2023-02-16T12:38:27.252Z,38.01
2023-02-16T12:41:18.770Z,37.34
2023-02-16T12:43:48.925Z,35.73
2023-02-16T12:46:23.639Z,36.08
2023-02-16T12:49:02.565Z,36.64
2023-02-16T12:51:35.676Z,38.36
2023-02-16T12:54:10.544Z,35.95
2023-02-16T12:56:42.426Z,35.63
2023-02-16T12:59:33.596Z,35.79
2023-02-16T13:02:01.036Z,35.71
2023-02-16T13:04:38.893Z,35.14
2023-02-16T13:07:28.729Z,34.54
2023-02-16T13:10:00.282Z,35.26
2023-02-16T13:12:34.985Z,36.64
2023-02-16T13:15:14.801Z,36.40
2023-02-16T13:17:56.162Z,37.06
2023-02-16T13:20:23.597Z,36.68
2023-02-16T13:23:04.912Z,35.22
2023-02-16T13:26:01.839Z,35.50
2023-02-16T13:28:56.242Z,36.21
2023-02-16T13:31:47.382Z,37.77
2023-02-16T13:34:53.486Z,37.49
2023-02-16T13:37:29.646Z,38.11
2023-02-16T13:40:23.753Z,36.70
2023-02-16T13:43:04.446Z,36.08
2023-02-16T13:45:32.693Z,35.90
2023-02-16T13:48:00.122Z,35.51
2023-02-16T13:50:33.282Z,35.76
2023-02-16T13:53:20.308Z,37.17
2023-02-16T13:55:47.249Z,37.01
2023-02-16T13:58:13.586Z,36.69
2023-02-16T14:00:42.913Z,35.40
2023-02-16T14:03:37.541Z,35.11
2023-02-16T14:06:34.262Z,35.54
2023-02-16T14:09:13.229Z,36.03
2023-02-16T14:11:52.921Z,35.08
2023-02-16T14:14:34.544Z,36.72
2023-02-16T14:17:17.644Z,38.81
2023-02-16T14:19:56.384Z,39.54
2023-02-16T14:22:37.459Z,39.79
2023-02-16T14:25:30.875Z,40.65
2023-02-16T14:28:16.323Z,43.46
2023-02-16T14:30:42.729Z,43.25
2023-02-16T14:33:12.185Z,45.06
2023-02-16T14:35:41.121Z,46.16
2023-02-16T14:38:17.291Z,45.85
2023-02-16T14:40:57.827Z,46.54
2023-02-16T14:43:25.953Z,47.49
2023-02-16T14:46:06.992Z,47.29
2023-02-16T14:49:06.575Z,48.21
2023-02-16T14:51:51.331Z,46.99
2023-02-16T14:54:41.350Z,46.56
2023-02-16T14:57:14.178Z,46.28
2023-02-16T14:59:48.408Z,47.52
2023-02-16T15:02:35.688Z,47.07
2023-02-16T15:05:20.160Z,47.97
2023-02-16T15:07:50.631Z,48.42
2023-02-16T15:10:22.405Z,48.99
2023-02-16T15:12:51.914Z,48.89
2023-02-16T15:15:23.690Z,49.91
2023-02-16T15:17:51.285Z,50.62
2023-02-16T15:20:32.823Z,51.14
2023-02-16T15:23:02.202Z,51.54
2023-02-16T15:25:33.856Z,52.56
2023-02-16T15:28:04.360Z,53.82
2023-02-16T15:30:33.454Z,54.89
2023-02-16T15:33:06.585Z,55.78
2023-02-16T15:35:36.911Z,56.21
2023-02-16T15:38:05.634Z,56.59
2023-02-16T15:40:33.223Z,56.67
2023-02-16T15:43:23.089Z,57.16
2023-02-16T15:45:54.750Z,57.33
2023-02-16T15:48:23.126Z,57.88
2023-02-16T15:50:51.137Z,58.85
2023-02-16T15:53:24.332Z,59.95
2023-02-16T15:55:51.509Z,58.72
2023-02-16T15:58:17.992Z,59.82
2023-02-16T16:00:45.174Z,60.20
2023-02-16T16:03:17.559Z,60.49
2023-02-16T16:05:56.231Z,61.34
2023-02-16T16:08:26.824Z,62.23
2023-02-16T16:10:53.652Z,61.93
2023-02-16T16:13:26.483Z,62.55
2023-02-16T16:15:59.738Z,62.38
2023-02-16T16:18:44.872Z,63.57
2023-02-16T16:21:34.222Z,64.13
2023-02-16T16:24:03.671Z,64.79
2023-02-16T16:26:33.720Z,65.02
2023-02-16T16:29:00.757Z,64.89
2023-02-16T16:31:28.076Z,65.25
2023-02-16T16:34:07.083Z,66.43
2023-02-16T16:36:54.095Z,66.19
2023-02-16T16:39:26.934Z,66.26
2023-02-16T16:41:56.362Z,66.43
2023-02-16T16:44:38.419Z,67.04
2023-02-16T16:47:37.193Z,66.95
2023-02-16T16:50:31.443Z,66.94
2023-02-16T16:52:58.150Z,67.73
2023-02-16T16:55:28.117Z,67.66
2023-02-16T16:58:01.543Z,68.42
2023-02-16T17:00:31.342Z,68.33
2023-02-16T17:02:58.553Z,69.42
2023-02-16T17:05:25.255Z,69.01
2023-02-16T17:07:51.944Z,68.72
2023-02-16T17:10:20.941Z,69.10
2023-02-16T17:12:50.779Z,69.02
2023-02-16T17:15:37.919Z,69.98
2023-02-16T17:18:05.914Z,69.45
2023-02-16T17:20:32.617Z,69.82
2023-02-16T17:23:04.672Z,69.71
2023-02-16T17:25:32.988Z,69.58
2023-02-16T17:27:59.832Z,70.69
2023-02-16T17:30:26.310Z,69.97
2023-02-16T17:32:52.834Z,70.25
2023-02-16T17:35:19.238Z,70.53
2023-02-16T17:37:46.109Z,69.96
2023-02-16T17:40:19.285Z,70.05
2023-02-16T17:42:47.117Z,70.55
2023-02-16T17:45:19.375Z,70.29
2023-02-16T17:47:47.182Z,70.91
2023-02-16T17:50:15.177Z,69.90
2023-02-16T17:52:42.501Z,70.16
2023-02-16T17:55:09.656Z,69.77
2023-02-16T17:57:36.210Z,70.21
2023-02-16T18:00:08.145Z,70.75
2023-02-16T18:02:34.908Z,70.81
2023-02-16T18:05:01.363Z,71.54
2023-02-16T18:07:27.828Z,71.64
2023-02-16T18:09:54.379Z,72.02
2023-02-16T18:12:20.941Z,71.50
2023-02-16T18:14:47.378Z,71.15
2023-02-16T18:17:13.855Z,71.13
2023-02-16T18:19:40.323Z,71.96
2023-02-16T18:22:06.795Z,72.15
2023-02-16T18:24:33.191Z,72.55
2023-02-16T18:26:59.574Z,71.98
2023-02-16T18:29:25.960Z,72.57
2023-02-16T18:31:52.763Z,72.09
2023-02-16T18:34:19.179Z,72.78
2023-02-16T18:36:45.573Z,73.16
2023-02-16T18:39:12.021Z,72.49
2023-02-16T18:41:38.685Z,72.50
2023-02-16T18:44:05.554Z,73.42
2023-02-16T18:46:32.359Z,73.11
2023-02-16T18:48:58.950Z,73.07
2023-02-16T18:51:28.976Z,72.67
2023-02-16T18:53:57.052Z,73.58
2023-02-16T18:56:23.854Z,73.41
2023-02-16T18:58:50.256Z,73.23
2023-02-16T19:01:28.773Z,73.39
2023-02-16T19:03:55.398Z,73.02
2023-02-16T19:06:22.262Z,72.55
2023-02-16T19:08:49.279Z,73.76
2023-02-16T19:11:15.631Z,73.77
2023-02-16T19:13:42.014Z,73.32
2023-02-16T19:16:08.773Z,73.51
2023-02-16T19:18:35.369Z,73.45
2023-02-16T19:21:09.770Z,73.23
2023-02-16T19:23:37.795Z,73.31
2023-02-16T19:26:09.589Z,73.84
2023-02-16T19:28:36.039Z,73.53
2023-02-16T19:31:04.294Z,73.13
2023-02-16T19:33:31.480Z,72.56
2023-02-16T19:36:06.513Z,71.71
2023-02-16T19:38:33.252Z,71.96
2023-02-16T19:41:00.096Z,71.96
2023-02-16T19:43:27.196Z,72.88
2023-02-16T19:45:53.781Z,72.18
2023-02-16T19:48:20.249Z,72.58
2023-02-16T19:50:47.453Z,72.68
2023-02-16T19:53:14.007Z,72.69
2023-02-16T19:55:42.131Z,72.94
2023-02-16T19:58:10.053Z,72.49
2023-02-16T20:00:37.898Z,73.40
2023-02-16T20:03:04.668Z,72.66
2023-02-16T20:05:32.763Z,72.96
2023-02-16T20:07:59.470Z,72.25
2023-02-16T20:10:26.256Z,73.11
2023-02-16T20:12:52.714Z,73.12
2023-02-16T20:15:19.467Z,72.51
2023-02-16T20:17:46.274Z,72.70
2023-02-16T20:20:24.432Z,72.55
2023-02-16T20:22:51.117Z,71.81
2023-02-16T20:25:17.817Z,71.70
2023-02-16T20:27:44.420Z,71.76
2023-02-16T20:30:24.195Z,72.64
2023-02-16T20:32:50.860Z,71.90
2023-02-16T20:35:17.539Z,71.85
2023-02-16T20:37:44.370Z,71.66
2023-02-16T20:40:11.394Z,72.07
2023-02-16T20:42:37.959Z,71.17
2023-02-16T20:45:05.880Z,71.29
2023-02-16T20:47:32.445Z,71.96
2023-02-16T20:49:59.579Z,70.68
2023-02-16T20:52:26.644Z,70.71
2023-02-16T20:54:54.433Z,71.25
2023-02-16T20:57:26.720Z,70.56
2023-02-16T20:59:54.678Z,70.60
2023-02-16T21:02:21.681Z,70.18
2023-02-16T21:04:48.498Z,69.54
2023-02-16T21:07:15.186Z,69.83
2023-02-16T21:09:42.829Z,69.19
2023-02-16T21:12:11.882Z,69.21
2023-02-16T21:14:38.347Z,69.23
2023-02-16T21:17:05.073Z,69.37
2023-02-16T21:19:31.531Z,68.69
2023-02-16T21:21:59.499Z,68.70
2023-02-16T21:24:35.692Z,69.08
2023-02-16T21:27:02.392Z,68.52
2023-02-16T21:29:28.826Z,67.96
2023-02-16T21:31:55.292Z,68.32
2023-02-16T21:34:21.740Z,68.54
2023-02-16T21:36:48.239Z,68.47
2023-02-16T21:39:14.699Z,68.18
2023-02-16T21:41:41.124Z,68.69
2023-02-16T21:44:15.566Z,67.71
2023-02-16T21:46:44.248Z,68.61
2023-02-16T21:49:19.090Z,69.40
2023-02-16T21:51:47.325Z,69.17
2023-02-16T21:54:16.575Z,70.07
2023-02-16T21:56:51.186Z,70.30
2023-02-16T21:59:19.343Z,69.63
2023-02-16T22:01:51.346Z,69.40
2023-02-16T22:04:21.017Z,69.84
2023-02-16T22:06:49.035Z,70.17
2023-02-16T22:09:19.954Z,69.50
2023-02-16T22:11:47.251Z,68.11
2023-02-16T22:14:14.252Z,68.14
2023-02-16T22:16:41.070Z,67.06
2023-02-16T22:19:10.847Z,67.75
2023-02-16T22:21:39.873Z,68.32
2023-02-16T22:24:07.242Z,68.80
2023-02-16T22:26:35.172Z,69.86
2023-02-16T22:29:03.039Z,69.32
2023-02-16T22:31:29.605Z,70.14
2023-02-16T22:33:58.197Z,69.99
2023-02-16T22:36:24.731Z,69.45
2023-02-16T22:38:51.796Z,69.58
2023-02-16T22:41:18.498Z,70.03
2023-02-16T22:43:44.919Z,70.19
2023-02-16T22:46:16.283Z,70.71
2023-02-16T22:48:43.500Z,70.79
2023-02-16T22:51:12.347Z,71.45
2023-02-16T22:53:38.823Z,70.83
2023-02-16T22:56:07.313Z,69.79
2023-02-16T22:58:35.986Z,69.76
2023-02-16T23:01:02.922Z,69.91
2023-02-16T23:03:30.081Z,68.96
2023-02-16T23:05:56.558Z,70.67
2023-02-16T23:08:23.758Z,69.58
2023-02-16T23:11:02.485Z,70.63
2023-02-16T23:13:33.223Z,70.74
2023-02-16T23:16:12.947Z,70.63
2023-02-16T23:18:39.491Z,70.68
2023-02-16T23:21:17.490Z,70.46
2023-02-16T23:23:44.879Z,70.38
2023-02-16T23:26:11.402Z,71.17
2023-02-16T23:28:39.659Z,71.85
2023-02-16T23:31:06.801Z,71.09
2023-02-16T23:33:33.891Z,70.19
2023-02-16T23:36:00.489Z,69.25
2023-02-16T23:38:27.583Z,70.65
2023-02-16T23:41:02.870Z,71.34
2023-02-16T23:43:29.597Z,70.76
2023-02-16T23:45:56.718Z,71.07
2023-02-16T23:48:23.432Z,71.34
2023-02-16T23:50:50.749Z,70.25
2023-02-16T23:53:17.960Z,71.13
2023-02-16T23:55:44.362Z,71.18
2023-02-16T23:58:11.149Z,70.52
